createdAt,value
2022-08-12T00:04:18.608Z,1019.9
2022-08-12T00:09:20.246Z,1019.8
2022-08-12T00:14:18.608Z,1019.9
2022-08-12T00:19:18.616Z,1019.8
2022-08-12T00:24:18.627Z,1019.7
2022-08-12T00:29:18.620Z,1019.7
2022-08-12T00:34:18.643Z,1019.6
2022-08-12T00:39:18.682Z,1019.6
2022-08-12T00:44:18.631Z,1019.6
2022-08-12T00:49:18.621Z,1019.6
2022-08-12T00:54:19.405Z,1019.6
2022-08-12T00:59:18.648Z,1019.7
2022-08-12T01:04:18.634Z,1019.7
2022-08-12T01:09:18.663Z,1019.7
2022-08-12T01:14:18.646Z,1019.7
2022-08-12T01:19:18.651Z,1019.7
2022-08-12T01:24:29.854Z,1019.7
2022-08-12T01:29:18.643Z,1019.8
2022-08-12T01:34:35.292Z,1019.8
2022-08-12T01:39:18.729Z,1019.7
2022-08-12T01:44:20.717Z,1019.7
2022-08-12T01:49:18.777Z,1019.6
2022-08-12T01:54:18.685Z,1019.6
2022-08-12T01:59:18.680Z,1019.6
2022-08-12T02:04:18.700Z,1019.6
2022-08-12T02:09:18.695Z,1019.6
2022-08-12T02:14:18.717Z,1019.6
2022-08-12T02:19:22.436Z,1019.6
2022-08-12T02:24:18.722Z,1019.5
2022-08-12T02:29:18.720Z,1019.4
2022-08-12T02:34:18.736Z,1019.4
2022-08-12T02:39:18.826Z,1019.4
2022-08-12T02:44:18.764Z,1019.3
2022-08-12T02:49:18.732Z,1019.3
2022-08-12T02:54:18.756Z,1019.3
2022-08-12T02:59:18.762Z,1019.2
2022-08-12T03:04:20.713Z,1019.2
2022-08-12T03:09:18.842Z,1019.2
2022-08-12T03:14:18.746Z,1019.1
2022-08-12T03:19:18.756Z,1019.1
2022-08-12T03:24:18.759Z,1019.1
2022-08-12T03:29:18.758Z,1019.1
2022-08-12T03:34:18.783Z,1019.1
2022-08-12T03:39:19.105Z,1019.1
2022-08-12T03:44:18.786Z,1019.1
2022-08-12T03:49:18.784Z,1019.1
2022-08-12T03:54:18.810Z,1019.1
2022-08-12T03:59:18.787Z,1019.0
2022-08-12T04:04:18.805Z,1019.1
2022-08-12T04:09:18.795Z,1019.0
2022-08-12T04:14:18.800Z,1019.0
2022-08-12T04:19:18.792Z,1019.0
2022-08-12T04:24:18.816Z,1019.0
2022-08-12T04:29:18.802Z,1019.0
2022-08-12T04:34:18.816Z,1018.9
2022-08-12T04:39:18.847Z,1019.0
2022-08-12T04:44:18.817Z,1019.0
2022-08-12T04:49:18.827Z,1018.9
2022-08-12T04:54:18.818Z,1018.9
2022-08-12T04:59:18.803Z,1018.9
2022-08-12T05:04:18.823Z,1018.9
2022-08-12T05:09:18.822Z,1019.0
2022-08-12T05:14:18.839Z,1019.0
2022-08-12T05:19:22.821Z,1019.0
2022-08-12T05:24:18.829Z,1019.1
2022-08-12T05:30:08.102Z,1019.1
2022-08-12T05:34:18.842Z,1019.1
2022-08-12T05:39:18.873Z,1019.1
2022-08-12T05:44:18.840Z,1019.1
2022-08-12T05:49:18.841Z,1019.2
2022-08-12T05:54:21.908Z,1019.2
2022-08-12T05:59:18.845Z,1019.1
2022-08-12T06:04:18.847Z,1019.3
2022-08-12T06:09:18.871Z,1019.3
2022-08-12T06:14:18.850Z,1019.3
2022-08-12T06:19:18.849Z,1019.3
2022-08-12T06:24:18.839Z,1019.3
2022-08-12T06:30:07.480Z,1019.3
2022-08-12T06:35:26.844Z,1019.3
2022-08-12T06:39:18.901Z,1019.3
2022-08-12T06:44:18.843Z,1019.3
2022-08-12T06:49:19.094Z,1019.3
2022-08-12T06:54:31.215Z,1019.3
2022-08-12T06:59:18.861Z,1019.3
2022-08-12T07:04:36.231Z,1019.3
2022-08-12T07:10:04.499Z,1019.4
2022-08-12T07:14:18.958Z,1019.4
2022-08-12T07:19:18.872Z,1019.4
2022-08-12T07:24:18.875Z,1019.4
2022-08-12T07:29:18.874Z,1019.4
2022-08-12T07:34:18.878Z,1019.4
2022-08-12T07:39:18.911Z,1019.4
2022-08-12T07:44:18.897Z,1019.3
2022-08-12T07:49:18.878Z,1019.3
2022-08-12T07:54:18.849Z,1019.3
2022-08-12T07:59:18.900Z,1019.3
2022-08-12T08:04:19.602Z,1019.3
2022-08-12T08:09:18.901Z,1019.2
2022-08-12T08:14:18.888Z,1019.2
2022-08-12T08:19:18.899Z,1019.2
2022-08-12T08:24:18.883Z,1019.3
2022-08-12T08:29:18.899Z,1019.2
2022-08-12T08:34:49.189Z,1019.2
2022-08-12T08:39:18.938Z,1019.1
2022-08-12T08:44:18.910Z,1019.1
2022-08-12T08:49:18.895Z,1019.0
2022-08-12T08:54:18.918Z,1019.0
2022-08-12T08:59:18.923Z,1019.0
2022-08-12T09:05:07.427Z,1018.9
2022-08-12T09:09:18.906Z,1018.9
2022-08-12T09:14:19.322Z,1018.8
2022-08-12T09:19:26.907Z,1018.8
2022-08-12T09:24:18.933Z,1018.7
2022-08-12T09:29:18.917Z,1018.7
2022-08-12T09:34:28.034Z,1018.7
2022-08-12T09:40:03.265Z,1018.7
2022-08-12T09:44:39.579Z,1018.6
2022-08-12T09:49:18.936Z,1018.6
2022-08-12T09:54:33.326Z,1018.6
2022-08-12T10:00:16.083Z,1018.5
2022-08-12T10:04:19.684Z,1018.5
2022-08-12T10:09:18.931Z,1018.6
2022-08-12T10:14:18.954Z,1018.5
2022-08-12T10:19:18.943Z,1018.5
2022-08-12T10:24:20.054Z,1018.5
2022-08-12T10:30:03.332Z,1018.5
2022-08-12T10:34:26.329Z,1018.4
2022-08-12T10:40:00.373Z,1018.3
2022-08-12T10:44:18.951Z,1018.3
2022-08-12T10:50:04.701Z,1018.3
2022-08-12T10:54:18.998Z,1018.2
2022-08-12T10:59:18.955Z,1018.2
2022-08-12T11:04:35.794Z,1018.1
2022-08-12T11:09:55.947Z,1018.0
2022-08-12T11:14:48.468Z,1018.0
2022-08-12T11:19:22.507Z,1018.0
2022-08-12T11:24:32.038Z,1018.0
2022-08-12T11:29:22.522Z,1017.9
2022-08-12T11:34:52.859Z,1017.9
2022-08-12T11:44:36.015Z,1017.9
2022-08-12T11:49:26.916Z,1017.9
2022-08-12T11:54:18.939Z,1017.8
2022-08-12T12:04:29.147Z,1017.7
2022-08-12T12:09:18.968Z,1017.7
2022-08-12T12:14:18.965Z,1017.6
2022-08-12T12:19:19.170Z,1017.6
2022-08-12T12:24:21.989Z,1017.5
2022-08-12T12:30:18.663Z,1017.5
2022-08-12T12:34:30.518Z,1017.5
2022-08-12T12:39:19.020Z,1017.5
2022-08-12T12:44:25.849Z,1017.4
2022-08-12T12:49:18.977Z,1017.4
2022-08-12T12:54:20.683Z,1017.3
2022-08-12T12:59:54.799Z,1017.3
2022-08-12T13:04:19.004Z,1017.3
2022-08-12T13:09:18.987Z,1017.3
2022-08-12T13:14:29.228Z,1017.3
2022-08-12T13:19:37.271Z,1017.3
2022-08-12T13:24:19.010Z,1017.3
2022-08-12T13:29:19.014Z,1017.3
2022-08-12T13:34:32.907Z,1017.3
2022-08-12T13:39:19.031Z,1017.3
2022-08-12T13:44:19.021Z,1017.2
2022-08-12T13:49:53.611Z,1017.2
2022-08-12T13:54:19.026Z,1017.2
2022-08-12T13:59:19.013Z,1017.3
2022-08-12T14:04:19.040Z,1017.2
2022-08-12T14:09:19.951Z,1017.2
2022-08-12T14:14:19.037Z,1017.2
2022-08-12T14:19:22.577Z,1017.2
2022-08-12T14:24:19.150Z,1017.3
2022-08-12T14:29:21.613Z,1017.2
2022-08-12T14:34:19.055Z,1017.0
2022-08-12T14:39:19.054Z,1017.1
2022-08-12T14:44:57.208Z,1017.1
2022-08-12T14:50:01.286Z,1017.0
2022-08-12T14:56:44.351Z,1017.0
2022-08-12T14:59:23.156Z,1016.9
2022-08-12T15:04:19.058Z,1017.1
2022-08-12T15:09:19.051Z,1017.0
2022-08-12T15:14:19.111Z,1017.0
2022-08-12T15:20:10.762Z,1016.9
2022-08-12T15:24:19.071Z,1016.9
2022-08-12T15:29:19.057Z,1016.9
2022-08-12T15:34:19.086Z,1016.9
2022-08-12T15:39:19.086Z,1016.8
2022-08-12T15:44:41.557Z,1016.7
2022-08-12T15:49:19.064Z,1016.7
2022-08-12T15:54:33.641Z,1016.7
2022-08-12T15:59:20.400Z,1016.8
2022-08-12T16:04:19.078Z,1016.7
2022-08-12T16:09:21.305Z,1016.7
2022-08-12T16:14:19.087Z,1016.7
2022-08-12T16:20:02.876Z,1016.6
2022-08-12T16:24:19.093Z,1016.6
2022-08-12T16:29:19.103Z,1016.6
2022-08-12T16:34:40.176Z,1016.5
2022-08-12T16:39:19.141Z,1016.6
2022-08-12T16:44:19.507Z,1016.6
2022-08-12T16:49:19.095Z,1016.6
2022-08-12T16:54:19.155Z,1016.6
2022-08-12T16:59:19.123Z,1016.6
2022-08-12T17:04:19.101Z,1016.7
2022-08-12T17:09:19.116Z,1016.7
2022-08-12T17:14:23.181Z,1016.7
2022-08-12T17:19:19.468Z,1016.6
2022-08-12T17:24:19.137Z,1016.6
2022-08-12T17:29:19.114Z,1016.5
2022-08-12T17:34:19.128Z,1016.5
2022-08-12T17:39:19.183Z,1016.6
2022-08-12T17:44:19.136Z,1016.5
2022-08-12T17:50:02.397Z,1016.5
2022-08-12T17:54:19.135Z,1016.4
2022-08-12T17:59:47.203Z,1016.3
2022-08-12T18:04:23.077Z,1016.3
2022-08-12T18:09:19.341Z,1016.3
2022-08-12T18:14:22.522Z,1016.4
2022-08-12T18:19:19.133Z,1016.3
2022-08-12T18:24:22.204Z,1016.4
2022-08-12T18:29:19.148Z,1016.4
2022-08-12T18:34:19.158Z,1016.4
2022-08-12T18:39:20.246Z,1016.4
2022-08-12T18:44:19.155Z,1016.4
2022-08-12T18:49:21.570Z,1016.5
2022-08-12T18:54:21.646Z,1016.5
2022-08-12T18:59:59.774Z,1016.5
2022-08-12T19:04:19.176Z,1016.5
2022-08-12T19:09:19.166Z,1016.4
2022-08-12T19:14:19.158Z,1016.3
2022-08-12T19:19:19.178Z,1016.4
2022-08-12T19:24:19.185Z,1016.4
2022-08-12T19:29:19.172Z,1016.4
2022-08-12T19:34:55.969Z,1016.4
2022-08-12T19:39:22.850Z,1016.4
2022-08-12T19:44:22.308Z,1016.4
2022-08-12T19:49:19.190Z,1016.5
2022-08-12T19:54:19.192Z,1016.6
2022-08-12T19:59:20.719Z,1016.6
2022-08-12T20:04:19.264Z,1016.6
2022-08-12T20:09:19.181Z,1016.7
2022-08-12T20:14:20.940Z,1016.7
2022-08-12T20:19:19.202Z,1016.7
2022-08-12T20:24:19.490Z,1016.7
2022-08-12T20:29:19.188Z,1016.7
2022-08-12T20:34:19.201Z,1016.7
2022-08-12T20:39:52.419Z,1016.7
2022-08-12T20:44:19.215Z,1016.7
2022-08-12T20:49:19.201Z,1016.7
2022-08-12T20:54:19.211Z,1016.7
2022-08-12T20:59:20.332Z,1016.8
2022-08-12T21:04:19.231Z,1016.7
2022-08-12T21:09:22.655Z,1016.7
2022-08-12T21:14:19.228Z,1016.7
2022-08-12T21:19:22.195Z,1016.7
2022-08-12T21:24:19.248Z,1016.7
2022-08-12T21:29:19.258Z,1016.8
2022-08-12T21:34:19.259Z,1016.8
2022-08-12T21:39:21.083Z,1016.8
2022-08-12T21:44:24.837Z,1016.8
2022-08-12T21:49:53.722Z,1016.8
2022-08-12T21:54:21.955Z,1016.8
2022-08-12T21:59:19.268Z,1016.7
2022-08-12T22:04:19.275Z,1016.7
2022-08-12T22:09:19.280Z,1016.7
2022-08-12T22:14:23.570Z,1016.7
2022-08-12T22:19:19.296Z,1016.6
2022-08-12T22:24:26.347Z,1016.6
2022-08-12T22:29:19.269Z,1016.6
2022-08-12T22:34:19.287Z,1016.6
2022-08-12T22:39:19.354Z,1016.6
2022-08-12T22:44:19.297Z,1016.6
2022-08-12T22:49:19.313Z,1016.5
2022-08-12T22:54:35.042Z,1016.5
2022-08-12T22:59:19.308Z,1016.6
2022-08-12T23:04:27.736Z,1016.6
2022-08-12T23:09:19.300Z,1016.6
2022-08-12T23:14:19.318Z,1016.6
2022-08-12T23:19:23.320Z,1016.6
2022-08-12T23:24:19.309Z,1016.6
2022-08-12T23:29:29.980Z,1016.5
2022-08-12T23:34:19.314Z,1016.5
2022-08-12T23:40:13.800Z,1016.5
2022-08-12T23:44:19.311Z,1016.5
2022-08-12T23:49:55.539Z,1016.4
2022-08-12T23:54:33.170Z,1016.4
2022-08-12T23:59:19.309Z,1016.4
